createdAt,value
2023-05-21T00:02:24.799Z,7.00
2023-05-21T00:04:51.589Z,6.75
2023-05-21T00:07:18.840Z,7.25
2023-05-21T00:09:45.393Z,6.80
2023-05-21T00:12:12.184Z,7.15
2023-05-21T00:14:38.961Z,6.50
2023-05-21T00:17:05.592Z,6.20
2023-05-21T00:19:33.785Z,6.47
2023-05-21T00:22:04.498Z,6.53
2023-05-21T00:24:31.095Z,6.63
2023-05-21T00:26:57.762Z,6.00
2023-05-21T00:29:25.418Z,6.55
2023-05-21T00:31:52.443Z,6.68
2023-05-21T00:34:19.338Z,6.63
2023-05-21T00:36:46.131Z,6.65
2023-05-21T00:39:13.412Z,6.57
2023-05-21T00:41:40.430Z,7.03
2023-05-21T00:44:07.288Z,6.97
2023-05-21T00:46:34.351Z,6.97
2023-05-21T00:49:01.528Z,7.50
2023-05-21T00:51:30.473Z,6.33
2023-05-21T00:53:57.687Z,6.63
2023-05-21T00:56:24.867Z,7.47
2023-05-21T00:58:54.881Z,6.47
2023-05-21T01:01:21.553Z,7.07
2023-05-21T01:03:49.086Z,7.10
2023-05-21T01:06:16.202Z,6.47
2023-05-21T01:08:44.527Z,6.55
2023-05-21T01:11:11.329Z,6.70
2023-05-21T01:13:39.408Z,7.32
2023-05-21T01:16:09.063Z,7.17
2023-05-21T01:18:38.026Z,7.47
2023-05-21T01:21:05.435Z,7.60
2023-05-21T01:23:32.065Z,8.52
2023-05-21T01:25:58.814Z,9.35
2023-05-21T01:28:25.758Z,7.63
2023-05-21T01:30:52.396Z,8.13
2023-05-21T01:33:39.180Z,7.53
2023-05-21T01:36:09.694Z,6.63
2023-05-21T01:38:39.797Z,8.20
2023-05-21T01:41:13.068Z,7.20
2023-05-21T01:43:42.307Z,7.75
2023-05-21T01:46:10.818Z,7.78
2023-05-21T01:48:38.015Z,7.97
2023-05-21T01:51:05.452Z,7.90
2023-05-21T01:53:32.348Z,7.37
2023-05-21T01:55:59.594Z,6.97
2023-05-21T01:58:27.935Z,7.63
2023-05-21T02:00:55.161Z,6.63
2023-05-21T02:03:23.599Z,7.90
2023-05-21T02:05:52.012Z,7.07
2023-05-21T02:08:19.725Z,7.03
2023-05-21T02:10:46.289Z,7.45
2023-05-21T02:13:12.865Z,7.35
2023-05-21T02:15:40.296Z,6.80
2023-05-21T02:18:07.094Z,6.80
2023-05-21T02:20:33.703Z,6.90
2023-05-21T02:23:00.159Z,6.80
2023-05-21T02:25:27.681Z,6.90
2023-05-21T02:27:56.907Z,6.55
2023-05-21T02:30:23.510Z,6.73
2023-05-21T02:32:50.905Z,6.63
2023-05-21T02:35:17.468Z,7.35
2023-05-21T02:37:44.194Z,7.43
2023-05-21T02:40:11.454Z,7.60
2023-05-21T02:42:39.819Z,6.80
2023-05-21T02:45:10.209Z,6.63
2023-05-21T02:47:36.886Z,7.07
2023-05-21T02:50:03.534Z,6.60
2023-05-21T02:52:30.096Z,7.70
2023-05-21T02:54:56.972Z,7.20
2023-05-21T02:57:23.466Z,6.95
2023-05-21T02:59:50.089Z,7.22
2023-05-21T03:02:17.134Z,7.30
2023-05-21T03:04:46.758Z,7.13
2023-05-21T03:07:14.442Z,6.70
2023-05-21T03:09:44.536Z,6.90
2023-05-21T03:12:11.409Z,6.60
2023-05-21T03:14:38.086Z,7.25
2023-05-21T03:17:08.086Z,7.13
2023-05-21T03:19:36.104Z,7.10
2023-05-21T03:22:03.565Z,6.82
2023-05-21T03:24:33.185Z,6.55
2023-05-21T03:27:01.534Z,6.82
2023-05-21T03:29:28.360Z,7.18
2023-05-21T03:31:55.028Z,7.33
2023-05-21T03:34:21.684Z,8.15
2023-05-21T03:36:48.803Z,7.85
2023-05-21T03:39:16.054Z,6.82
2023-05-21T03:41:42.870Z,7.40
2023-05-21T03:44:09.597Z,6.57
2023-05-21T03:46:36.212Z,7.60
2023-05-21T03:49:02.893Z,6.80
2023-05-21T03:51:30.796Z,6.40
2023-05-21T03:53:58.323Z,7.32
2023-05-21T03:56:25.042Z,6.50
2023-05-21T03:58:53.017Z,7.28
2023-05-21T04:01:19.739Z,6.97
2023-05-21T04:03:46.620Z,7.22
2023-05-21T04:06:13.543Z,7.13
2023-05-21T04:08:40.012Z,6.83
2023-05-21T04:11:06.493Z,6.95
2023-05-21T04:13:33.091Z,7.13
2023-05-21T04:15:59.938Z,7.32
2023-05-21T04:18:27.148Z,7.00
2023-05-21T04:20:53.911Z,7.27
2023-05-21T04:23:23.635Z,6.82
2023-05-21T04:25:51.197Z,7.43
2023-05-21T04:28:21.149Z,6.78
2023-05-21T04:30:48.092Z,7.82
2023-05-21T04:33:18.430Z,7.17
2023-05-21T04:35:46.534Z,6.18
2023-05-21T04:38:14.144Z,7.47
2023-05-21T04:40:40.769Z,6.93
2023-05-21T04:43:08.211Z,6.80
2023-05-21T04:45:35.027Z,7.20
2023-05-21T04:48:02.976Z,7.40
2023-05-21T04:50:30.969Z,6.90
2023-05-21T04:52:58.832Z,7.80
2023-05-21T04:55:26.125Z,7.10
2023-05-21T04:57:53.199Z,7.10
2023-05-21T05:00:19.876Z,7.82
2023-05-21T05:02:46.380Z,7.38
2023-05-21T05:05:13.059Z,7.93
2023-05-21T05:07:39.589Z,7.40
2023-05-21T05:10:06.429Z,7.07
2023-05-21T05:12:32.957Z,7.03
2023-05-21T05:14:59.400Z,7.45
2023-05-21T05:17:26.258Z,7.10
2023-05-21T05:19:53.446Z,7.35
2023-05-21T05:22:19.957Z,7.33
2023-05-21T05:24:46.595Z,8.43
2023-05-21T05:27:13.068Z,7.90
2023-05-21T05:29:39.595Z,8.55
2023-05-21T05:32:06.718Z,9.05
2023-05-21T05:34:33.151Z,8.03
2023-05-21T05:36:59.687Z,8.25
2023-05-21T05:39:26.322Z,7.95
2023-05-21T05:41:52.847Z,7.43
2023-05-21T05:44:19.948Z,7.65
2023-05-21T05:46:46.460Z,6.97
2023-05-21T05:49:13.958Z,8.65
2023-05-21T05:51:40.906Z,9.18
2023-05-21T05:54:07.611Z,6.82
2023-05-21T05:56:34.172Z,8.25
2023-05-21T05:59:00.635Z,7.97
2023-05-21T06:01:28.353Z,11.02
2023-05-21T06:03:55.169Z,8.45
2023-05-21T06:06:21.767Z,8.02
2023-05-21T06:08:48.203Z,8.07
2023-05-21T06:11:17.423Z,8.00
2023-05-21T06:13:43.889Z,7.57
2023-05-21T06:16:10.440Z,9.27
2023-05-21T06:18:37.418Z,6.97
2023-05-21T06:21:04.025Z,8.90
2023-05-21T06:23:32.778Z,7.83
2023-05-21T06:25:59.505Z,7.15
2023-05-21T06:28:26.424Z,9.20
2023-05-21T06:30:53.295Z,7.97
2023-05-21T06:33:20.062Z,6.68
2023-05-21T06:35:46.735Z,6.17
2023-05-21T06:38:13.199Z,7.93
2023-05-21T06:40:39.800Z,8.75
2023-05-21T06:43:06.452Z,6.40
2023-05-21T06:45:33.305Z,7.70
2023-05-21T06:48:00.027Z,7.20
2023-05-21T06:50:26.989Z,7.20
2023-05-21T06:52:53.481Z,8.48
2023-05-21T06:55:20.136Z,8.82
2023-05-21T06:57:46.897Z,8.32
2023-05-21T07:00:14.122Z,9.77
2023-05-21T07:02:40.986Z,9.55
2023-05-21T07:05:07.827Z,8.85
2023-05-21T07:07:35.468Z,8.30
2023-05-21T07:10:02.026Z,7.80
2023-05-21T07:12:28.584Z,7.53
2023-05-21T07:14:55.561Z,6.97
2023-05-21T07:17:23.130Z,8.35
2023-05-21T07:19:50.059Z,6.68
2023-05-21T07:22:16.729Z,7.10
2023-05-21T07:24:43.232Z,6.50
2023-05-21T07:27:24.623Z,11.68
2023-05-21T07:29:52.352Z,7.13
2023-05-21T07:32:18.967Z,6.78
2023-05-21T07:34:45.442Z,8.88
2023-05-21T07:37:11.940Z,7.40
2023-05-21T07:39:38.526Z,7.28
2023-05-21T07:42:05.190Z,12.10
2023-05-21T07:44:32.028Z,7.50
2023-05-21T07:46:58.812Z,7.65
2023-05-21T07:49:25.326Z,7.60
2023-05-21T07:51:52.062Z,8.13
2023-05-21T07:54:19.984Z,14.82
2023-05-21T07:56:46.624Z,8.00
2023-05-21T07:59:14.417Z,7.78
2023-05-21T08:01:41.306Z,10.63
2023-05-21T08:04:08.175Z,7.90
2023-05-21T08:06:34.828Z,8.88
2023-05-21T08:09:04.973Z,7.70
2023-05-21T08:11:31.836Z,8.77
2023-05-21T08:13:58.560Z,7.97
2023-05-21T08:16:25.218Z,7.70
2023-05-21T08:18:51.813Z,7.15
2023-05-21T08:21:18.792Z,7.38
2023-05-21T08:23:45.785Z,7.90
2023-05-21T08:26:12.437Z,7.40
2023-05-21T08:28:39.123Z,9.50
2023-05-21T08:31:06.045Z,7.97
2023-05-21T08:33:34.742Z,7.35
2023-05-21T08:36:01.501Z,8.15
2023-05-21T08:38:30.307Z,7.50
2023-05-21T08:40:58.328Z,16.50
2023-05-21T08:43:27.985Z,10.40
2023-05-21T08:45:56.188Z,8.88
2023-05-21T08:48:23.712Z,9.60
2023-05-21T08:50:54.028Z,6.80
2023-05-21T08:53:28.090Z,7.57
2023-05-21T08:55:56.628Z,8.38
2023-05-21T08:58:23.320Z,9.95
2023-05-21T09:00:49.977Z,6.88
2023-05-21T09:03:17.026Z,7.17
2023-05-21T09:05:45.802Z,7.45
2023-05-21T09:08:15.260Z,8.48
2023-05-21T09:10:48.171Z,9.07
2023-05-21T09:13:18.558Z,8.32
2023-05-21T09:15:45.805Z,8.90
2023-05-21T09:18:12.717Z,7.40
2023-05-21T09:20:39.400Z,7.50
2023-05-21T09:23:08.185Z,7.88
2023-05-21T09:25:37.687Z,8.18
2023-05-21T09:28:04.767Z,8.87
2023-05-21T09:30:33.962Z,8.90
2023-05-21T09:33:03.477Z,9.00
2023-05-21T09:35:30.606Z,9.52
2023-05-21T09:38:00.842Z,9.65
2023-05-21T09:40:28.550Z,10.33
2023-05-21T09:42:55.374Z,9.55
2023-05-21T09:45:26.028Z,9.48
2023-05-21T09:47:53.815Z,15.73
2023-05-21T09:50:21.488Z,8.55
2023-05-21T09:52:50.401Z,9.17
2023-05-21T09:55:17.196Z,9.50
2023-05-21T09:57:44.893Z,15.25
2023-05-21T10:00:18.843Z,9.15
2023-05-21T10:02:49.370Z,10.80
2023-05-21T10:05:16.669Z,9.63
2023-05-21T10:07:45.574Z,10.80
2023-05-21T10:10:14.117Z,9.98
2023-05-21T10:12:45.181Z,10.52
2023-05-21T10:15:14.064Z,10.18
2023-05-21T10:17:41.267Z,8.87
2023-05-21T10:20:08.547Z,14.35
2023-05-21T10:22:35.720Z,10.27
2023-05-21T10:25:04.032Z,9.57
2023-05-21T10:27:32.411Z,9.50
2023-05-21T10:29:59.582Z,10.13
2023-05-21T10:32:30.451Z,10.70
2023-05-21T10:34:59.413Z,9.93
2023-05-21T10:37:28.893Z,9.75
2023-05-21T10:39:56.463Z,10.60
2023-05-21T10:42:46.184Z,9.67
2023-05-21T10:45:32.764Z,10.15
2023-05-21T10:48:02.410Z,10.95
2023-05-21T10:50:48.097Z,10.50
2023-05-21T10:53:33.644Z,13.07
2023-05-21T10:56:22.131Z,10.83
2023-05-21T10:58:57.858Z,11.18
2023-05-21T11:01:27.437Z,11.65
2023-05-21T11:03:54.995Z,12.70
2023-05-21T11:06:28.427Z,11.63
2023-05-21T11:08:55.777Z,10.53
2023-05-21T11:11:45.175Z,11.10
2023-05-21T11:14:39.122Z,16.27
2023-05-21T11:17:24.653Z,11.25
2023-05-21T11:19:51.552Z,10.70
2023-05-21T11:22:21.769Z,12.20
2023-05-21T11:24:50.862Z,14.82
2023-05-21T11:27:31.117Z,19.75
2023-05-21T11:29:58.025Z,12.75
2023-05-21T11:32:24.939Z,10.95
2023-05-21T11:34:51.880Z,10.93
2023-05-21T11:37:18.550Z,11.38
2023-05-21T11:39:45.863Z,11.85
2023-05-21T11:42:12.706Z,11.38
2023-05-21T11:44:40.069Z,11.90
2023-05-21T11:47:07.293Z,16.20
2023-05-21T11:49:33.863Z,11.68
2023-05-21T11:52:00.614Z,11.48
2023-05-21T11:54:27.773Z,12.00
2023-05-21T11:56:54.605Z,11.93
2023-05-21T11:59:21.148Z,10.27
2023-05-21T12:01:47.637Z,13.82
2023-05-21T12:04:14.245Z,12.10
2023-05-21T12:06:44.125Z,12.25
2023-05-21T12:09:11.055Z,11.55
2023-05-21T12:11:41.395Z,11.40
2023-05-21T12:14:09.390Z,11.02
2023-05-21T12:16:36.079Z,12.73
2023-05-21T12:19:03.611Z,12.60
2023-05-21T12:21:31.701Z,12.30
2023-05-21T12:23:58.704Z,12.43
2023-05-21T12:26:26.006Z,11.85
2023-05-21T12:28:53.687Z,11.52
2023-05-21T12:31:22.124Z,11.75
2023-05-21T12:33:52.146Z,11.73
2023-05-21T12:36:22.782Z,11.70
2023-05-21T12:38:50.144Z,11.38
2023-05-21T12:41:17.106Z,12.07
2023-05-21T12:43:43.906Z,10.27
2023-05-21T12:46:14.960Z,12.43
2023-05-21T12:48:42.743Z,11.67
2023-05-21T12:51:09.382Z,11.90
2023-05-21T12:53:38.906Z,11.90
2023-05-21T12:56:09.526Z,12.27
2023-05-21T12:58:38.311Z,12.52
2023-05-21T13:01:08.074Z,12.30
2023-05-21T13:03:35.602Z,12.48
2023-05-21T13:06:02.611Z,12.02
2023-05-21T13:08:29.904Z,11.82
2023-05-21T13:10:56.463Z,13.23
2023-05-21T13:13:23.111Z,12.00
2023-05-21T13:15:49.582Z,12.70
2023-05-21T13:18:16.339Z,12.45
2023-05-21T13:20:42.904Z,13.13
2023-05-21T13:23:11.429Z,20.70
2023-05-21T13:25:38.776Z,12.63
2023-05-21T13:28:05.672Z,13.07
2023-05-21T13:30:33.424Z,13.05
2023-05-21T13:33:00.482Z,12.73
2023-05-21T13:35:27.013Z,14.32
2023-05-21T13:37:53.523Z,13.87
2023-05-21T13:40:20.219Z,12.55
2023-05-21T13:42:48.288Z,12.32
2023-05-21T13:45:16.275Z,13.18
2023-05-21T13:47:43.672Z,13.95
2023-05-21T13:50:10.463Z,12.67
2023-05-21T13:52:37.297Z,13.38
2023-05-21T13:55:04.025Z,13.70
2023-05-21T13:57:31.185Z,13.20
2023-05-21T13:59:58.293Z,13.25
2023-05-21T14:02:25.163Z,13.20
2023-05-21T14:04:51.750Z,13.52
2023-05-21T14:07:18.284Z,13.23
2023-05-21T14:09:44.774Z,14.75
2023-05-21T14:12:11.933Z,12.95
2023-05-21T14:14:38.402Z,12.97
2023-05-21T14:17:06.547Z,12.90
2023-05-21T14:19:33.612Z,13.15
2023-05-21T14:22:00.662Z,12.55
2023-05-21T14:24:27.229Z,14.18
2023-05-21T14:26:53.716Z,13.73
2023-05-21T14:29:20.513Z,13.32
2023-05-21T14:31:47.122Z,14.40
2023-05-21T14:34:13.745Z,13.43
2023-05-21T14:36:40.177Z,14.00
2023-05-21T14:39:06.783Z,13.97
2023-05-21T14:41:33.402Z,15.02
2023-05-21T14:44:00.227Z,13.82
2023-05-21T14:46:26.988Z,12.93
2023-05-21T14:48:55.078Z,13.88
2023-05-21T14:51:22.185Z,13.77
2023-05-21T14:53:48.759Z,14.27
2023-05-21T14:56:15.636Z,14.52
2023-05-21T14:58:42.293Z,13.73
2023-05-21T15:01:09.112Z,14.48
2023-05-21T15:03:35.952Z,15.30
2023-05-21T15:06:02.944Z,13.02
2023-05-21T15:08:30.011Z,15.90
2023-05-21T15:10:57.083Z,14.00
2023-05-21T15:13:23.791Z,14.60
2023-05-21T15:15:50.654Z,14.57
2023-05-21T15:18:17.521Z,13.52
2023-05-21T15:20:44.362Z,15.00
2023-05-21T15:25:40.301Z,14.75
2023-05-21T15:28:06.779Z,13.77
2023-05-21T15:30:33.331Z,13.15
2023-05-21T15:33:00.721Z,13.48
2023-05-21T15:35:27.468Z,16.95
2023-05-21T15:37:54.062Z,13.90
2023-05-21T15:40:20.569Z,14.90
2023-05-21T15:42:47.042Z,13.68
2023-05-21T15:45:13.589Z,15.82
2023-05-21T15:47:42.901Z,14.75
2023-05-21T15:50:10.128Z,14.75
2023-05-21T15:52:37.114Z,13.97
2023-05-21T15:55:03.705Z,14.02
2023-05-21T15:57:30.445Z,13.65
2023-05-21T15:59:57.109Z,15.38
2023-05-21T16:02:23.764Z,13.10
2023-05-21T16:04:52.179Z,13.40
2023-05-21T16:07:19.095Z,12.80
2023-05-21T16:09:45.803Z,14.07
2023-05-21T16:12:12.629Z,13.38
2023-05-21T16:14:39.148Z,12.57
2023-05-21T16:17:05.779Z,13.33
2023-05-21T16:19:32.339Z,13.68
2023-05-21T16:21:59.496Z,12.57
2023-05-21T16:24:25.979Z,12.73
2023-05-21T16:26:52.551Z,12.70
2023-05-21T16:29:19.418Z,12.83
2023-05-21T16:31:47.368Z,12.23
2023-05-21T16:34:13.909Z,13.27
2023-05-21T16:36:40.594Z,12.32
2023-05-21T16:39:07.318Z,11.10
2023-05-21T16:41:33.966Z,11.43
2023-05-21T16:44:01.022Z,11.52
2023-05-21T16:46:27.653Z,12.15
2023-05-21T16:48:54.361Z,11.05
2023-05-21T16:51:20.895Z,12.52
2023-05-21T16:53:47.354Z,12.77
2023-05-21T16:56:13.795Z,11.38
2023-05-21T16:58:40.422Z,10.85
2023-05-21T17:01:06.891Z,10.45
2023-05-21T17:03:33.608Z,10.52
2023-05-21T17:06:00.775Z,11.13
2023-05-21T17:08:27.284Z,10.85
2023-05-21T17:10:53.810Z,10.25
2023-05-21T17:13:23.015Z,10.98
2023-05-21T17:15:51.351Z,13.95
2023-05-21T17:18:18.230Z,10.17
2023-05-21T17:20:44.949Z,10.90
2023-05-21T17:23:12.269Z,10.20
2023-05-21T17:25:39.748Z,10.38
2023-05-21T17:28:07.057Z,10.50
2023-05-21T17:30:33.677Z,10.90
2023-05-21T17:33:02.207Z,10.27
2023-05-21T17:35:29.133Z,11.60
2023-05-21T17:37:55.763Z,10.20
2023-05-21T17:40:24.537Z,10.95
2023-05-21T17:42:52.043Z,12.77
2023-05-21T17:45:18.750Z,10.63
2023-05-21T17:47:45.634Z,10.85
2023-05-21T17:50:12.324Z,11.23
2023-05-21T17:52:38.960Z,10.30
2023-05-21T17:55:05.856Z,9.33
2023-05-21T17:57:32.507Z,9.93
2023-05-21T17:59:59.107Z,12.02
2023-05-21T18:02:27.507Z,10.35
2023-05-21T18:04:54.133Z,9.93
2023-05-21T18:07:22.215Z,9.60
2023-05-21T18:09:49.045Z,9.60
2023-05-21T18:12:15.757Z,9.57
2023-05-21T18:14:42.283Z,9.60
2023-05-21T18:17:08.782Z,9.73
2023-05-21T18:19:35.310Z,9.27
2023-05-21T18:22:01.987Z,9.75
2023-05-21T18:24:28.628Z,9.88
2023-05-21T18:26:55.425Z,9.10
2023-05-21T18:29:21.896Z,10.00
2023-05-21T18:31:48.539Z,10.83
2023-05-21T18:34:16.957Z,9.45
2023-05-21T18:36:43.489Z,9.98
2023-05-21T18:39:10.096Z,9.18
2023-05-21T18:41:37.489Z,9.18
2023-05-21T18:44:05.999Z,9.27
2023-05-21T18:46:32.731Z,9.68
2023-05-21T18:49:00.277Z,10.50
2023-05-21T18:51:26.852Z,9.48
2023-05-21T18:53:53.516Z,8.60
2023-05-21T18:56:20.213Z,9.87
2023-05-21T18:58:47.652Z,9.73
2023-05-21T19:01:14.220Z,9.43
2023-05-21T19:03:41.172Z,9.95
2023-05-21T19:06:08.667Z,10.10
2023-05-21T19:08:35.152Z,9.47
2023-05-21T19:11:01.777Z,9.13
2023-05-21T19:13:28.338Z,10.32
2023-05-21T19:15:55.221Z,8.05
2023-05-21T19:18:21.753Z,8.07
2023-05-21T19:20:48.264Z,6.90
2023-05-21T19:23:15.305Z,8.27
2023-05-21T19:25:41.777Z,7.93
2023-05-21T19:28:08.664Z,7.07
2023-05-21T19:30:36.719Z,8.15
2023-05-21T19:33:03.695Z,7.73
2023-05-21T19:35:30.943Z,8.63
2023-05-21T19:38:00.162Z,8.77
2023-05-21T19:40:28.348Z,10.00
2023-05-21T19:42:54.938Z,7.72
2023-05-21T19:45:21.656Z,9.00
2023-05-21T19:47:48.476Z,8.55
2023-05-21T19:50:15.446Z,8.65
2023-05-21T19:52:42.406Z,8.65
2023-05-21T19:55:10.198Z,9.55
2023-05-21T19:57:37.425Z,8.27
2023-05-21T20:00:04.919Z,8.27
2023-05-21T20:02:31.698Z,8.15
2023-05-21T20:04:59.300Z,8.25
2023-05-21T20:07:25.961Z,9.07
2023-05-21T20:09:52.508Z,8.37
2023-05-21T20:12:19.431Z,8.20
2023-05-21T20:14:46.951Z,8.13
2023-05-21T20:17:14.571Z,8.32
2023-05-21T20:19:41.295Z,8.88
2023-05-21T20:22:07.807Z,8.90
2023-05-21T20:24:34.300Z,9.65
2023-05-21T20:27:01.691Z,8.25
2023-05-21T20:29:28.908Z,8.95
2023-05-21T20:31:55.576Z,8.68
2023-05-21T20:34:22.219Z,8.17
2023-05-21T20:36:48.750Z,8.38
2023-05-21T20:39:15.758Z,8.98
2023-05-21T20:41:44.586Z,7.78
2023-05-21T20:44:12.050Z,9.43
2023-05-21T20:46:39.063Z,9.10
2023-05-21T20:49:05.946Z,8.65
2023-05-21T20:51:32.569Z,8.32
2023-05-21T20:53:59.071Z,8.50
2023-05-21T20:56:37.474Z,9.35
2023-05-21T20:59:09.280Z,8.30
2023-05-21T21:01:38.088Z,8.25
2023-05-21T21:04:05.169Z,8.18
2023-05-21T21:06:32.275Z,9.68
2023-05-21T21:08:59.214Z,8.85
2023-05-21T21:11:26.779Z,8.30
2023-05-21T21:13:53.286Z,8.43
2023-05-21T21:16:20.151Z,9.48
2023-05-21T21:18:47.180Z,8.93
2023-05-21T21:21:13.924Z,9.30
2023-05-21T21:23:40.991Z,8.80
2023-05-21T21:26:07.485Z,9.15
2023-05-21T21:28:34.024Z,9.38
2023-05-21T21:31:00.836Z,8.65
2023-05-21T21:33:28.476Z,9.32
2023-05-21T21:35:55.323Z,8.20
2023-05-21T21:38:21.833Z,9.57
2023-05-21T21:40:48.393Z,8.45
2023-05-21T21:43:15.029Z,8.73
2023-05-21T21:45:41.625Z,8.25
2023-05-21T21:48:08.167Z,8.30
2023-05-21T21:50:34.811Z,8.23
2023-05-21T21:53:03.700Z,8.50
2023-05-21T21:55:30.781Z,7.85
2023-05-21T21:57:57.419Z,8.85
2023-05-21T22:00:26.765Z,9.37
2023-05-21T22:02:53.984Z,8.27
2023-05-21T22:05:21.291Z,9.18
2023-05-21T22:07:47.979Z,8.52
2023-05-21T22:10:15.414Z,9.07
2023-05-21T22:12:42.370Z,8.93
2023-05-21T22:15:11.419Z,8.80
2023-05-21T22:17:38.392Z,10.38
2023-05-21T22:20:05.989Z,9.77
2023-05-21T22:22:33.087Z,10.75
2023-05-21T22:24:59.642Z,8.83
2023-05-21T22:27:26.251Z,9.40
2023-05-21T22:29:52.770Z,10.35
2023-05-21T22:32:19.491Z,10.13
2023-05-21T22:34:46.208Z,10.45
2023-05-21T22:37:12.728Z,9.57
2023-05-21T22:39:39.253Z,9.85
2023-05-21T22:42:05.942Z,11.55
2023-05-21T22:44:32.560Z,10.05
2023-05-21T22:47:01.046Z,10.65
2023-05-21T22:49:27.875Z,10.67
2023-05-21T22:51:56.524Z,11.13
2023-05-21T22:54:23.094Z,10.60
2023-05-21T22:56:49.892Z,11.88
2023-05-21T22:59:16.488Z,12.50
2023-05-21T23:01:43.207Z,11.23
2023-05-21T23:04:09.686Z,11.48
2023-05-21T23:06:36.243Z,12.88
2023-05-21T23:09:03.153Z,11.85
2023-05-21T23:11:29.930Z,12.65
2023-05-21T23:13:56.582Z,13.43
2023-05-21T23:16:24.291Z,12.93
2023-05-21T23:18:51.156Z,13.60
2023-05-21T23:21:17.999Z,12.23
2023-05-21T23:23:44.523Z,13.00
2023-05-21T23:26:11.090Z,12.07
2023-05-21T23:28:38.681Z,13.02
2023-05-21T23:31:05.458Z,13.40
2023-05-21T23:33:32.625Z,14.55
2023-05-21T23:35:59.257Z,13.30
2023-05-21T23:38:26.015Z,13.43
2023-05-21T23:40:53.381Z,15.13
2023-05-21T23:43:20.347Z,15.20
2023-05-21T23:45:47.074Z,16.42
2023-05-21T23:48:14.134Z,14.60
2023-05-21T23:50:40.779Z,15.50
2023-05-21T23:53:07.430Z,16.15
2023-05-21T23:55:34.019Z,16.95
2023-05-21T23:58:01.718Z,15.80
